createdAt,value
2016-05-28T00:00:10.126Z,21.01
2016-05-28T00:01:10.098Z,20.98
2016-05-28T00:02:10.288Z,21.05
2016-05-28T00:03:10.041Z,21
2016-05-28T00:04:10.043Z,20.96
2016-05-28T00:05:10.280Z,21.01
2016-05-28T00:06:09.862Z,21.08
2016-05-28T00:07:09.848Z,21.03
2016-05-28T00:08:09.993Z,20.97
2016-05-28T00:09:09.979Z,20.91
2016-05-28T00:10:10.262Z,20.88
2016-05-28T00:11:09.969Z,20.93
2016-05-28T00:12:09.784Z,20.82
2016-05-28T00:13:09.927Z,20.82
2016-05-28T00:14:09.915Z,20.88
2016-05-28T00:15:09.901Z,20.81
2016-05-28T00:16:09.904Z,20.85
2016-05-28T00:17:09.859Z,20.88
2016-05-28T00:18:10.315Z,20.85
2016-05-28T00:19:09.834Z,20.91
2016-05-28T00:20:09.978Z,20.82
2016-05-28T00:21:09.667Z,20.9
2016-05-28T00:22:09.811Z,20.81
2016-05-28T00:23:09.798Z,20.85
2016-05-28T00:24:09.770Z,20.82
2016-05-28T00:25:09.772Z,20.87
2016-05-28T00:26:10.305Z,20.88
2016-05-28T00:27:09.747Z,20.87
2016-05-28T00:28:09.733Z,20.87
2016-05-28T00:29:09.720Z,20.94
2016-05-28T00:30:09.552Z,21.01
2016-05-28T00:31:09.694Z,20.96
2016-05-28T00:32:09.369Z,20.97
2016-05-28T00:33:09.669Z,20.96
2016-05-28T00:34:09.593Z,20.87
2016-05-28T00:35:09.627Z,20.98
2016-05-28T00:36:09.458Z,20.88
2016-05-28T00:37:09.617Z,20.87
2016-05-28T00:38:09.604Z,20.9
2016-05-28T00:39:09.591Z,20.91
2016-05-28T00:40:09.578Z,20.85
2016-05-28T00:41:09.549Z,20.96
2016-05-28T00:42:09.599Z,20.9
2016-05-28T00:43:09.540Z,20.94
2016-05-28T00:44:09.354Z,20.93
2016-05-28T00:45:09.513Z,20.85
2016-05-28T00:46:09.329Z,20.93
2016-05-28T00:47:09.473Z,20.94
2016-05-28T00:48:09.475Z,20.9
2016-05-28T00:49:09.446Z,20.9
2016-05-28T00:50:09.605Z,20.85
2016-05-28T00:51:09.420Z,20.85
2016-05-28T00:52:09.407Z,20.88
2016-05-28T00:53:09.409Z,20.83
2016-05-28T00:54:09.381Z,20.91
2016-05-28T00:55:09.369Z,20.83
2016-05-28T00:56:09.371Z,20.85
2016-05-28T00:57:09.343Z,20.83
2016-05-28T00:58:09.595Z,20.75
2016-05-28T00:59:09.332Z,20.79
2016-05-28T01:00:09.304Z,20.75
2016-05-28T01:01:09.291Z,20.83
2016-05-28T01:02:09.277Z,20.87
2016-05-28T01:03:09.265Z,20.82
2016-05-28T01:04:09.252Z,20.76
2016-05-28T01:05:09.646Z,20.72
2016-05-28T01:06:09.601Z,20.75
2016-05-28T01:07:09.229Z,20.75
2016-05-28T01:08:09.200Z,20.72
2016-05-28T01:09:09.188Z,20.61
2016-05-28T01:10:09.269Z,20.63
2016-05-28T01:11:09.020Z,20.66
2016-05-28T01:12:09.148Z,20.69
2016-05-28T01:13:09.245Z,20.64
2016-05-28T01:14:09.623Z,20.78
2016-05-28T01:15:09.359Z,20.78
2016-05-28T01:16:09.004Z,20.72
2016-05-28T01:17:09.084Z,20.81
2016-05-28T01:18:09.071Z,20.76
2016-05-28T01:19:09.058Z,20.82
2016-05-28T01:20:09.045Z,20.79
2016-05-28T01:21:09.235Z,20.81
2016-05-28T01:22:08.862Z,20.87
2016-05-28T01:23:09.006Z,20.78
2016-05-28T01:24:08.993Z,20.79
2016-05-28T01:25:08.980Z,20.83
2016-05-28T01:26:08.967Z,20.81
2016-05-28T01:27:08.954Z,20.81
2016-05-28T01:28:08.942Z,20.85
2016-05-28T01:29:09.398Z,20.96
2016-05-28T01:30:08.931Z,20.87
2016-05-28T01:31:08.747Z,20.94
2016-05-28T01:32:08.889Z,20.85
2016-05-28T01:33:08.877Z,20.83
2016-05-28T01:34:08.864Z,20.73
2016-05-28T01:35:09.147Z,20.75
2016-05-28T01:36:08.838Z,20.66
2016-05-28T01:37:09.278Z,20.61
2016-05-28T01:38:08.812Z,20.71
2016-05-28T01:39:08.627Z,20.71
2016-05-28T01:40:08.785Z,20.78
2016-05-28T01:41:08.774Z,20.66
2016-05-28T01:42:08.745Z,20.63
2016-05-28T01:43:08.576Z,20.58
2016-05-28T01:44:08.594Z,20.6
2016-05-28T01:45:09.424Z,20.69
2016-05-28T01:46:08.693Z,20.63
2016-05-28T01:47:08.540Z,20.6
2016-05-28T01:48:08.682Z,20.64
2016-05-28T01:49:08.514Z,20.66
2016-05-28T01:50:08.657Z,20.66
2016-05-28T01:51:08.706Z,20.64
2016-05-28T01:52:08.631Z,20.68
2016-05-28T01:53:09.274Z,20.66
2016-05-28T01:54:08.605Z,20.64
2016-05-28T01:55:08.592Z,20.71
2016-05-28T01:56:08.579Z,20.6
2016-05-28T01:57:08.582Z,20.57
2016-05-28T01:58:08.397Z,20.68
2016-05-28T01:59:08.384Z,20.76
2016-05-28T02:00:08.544Z,20.9
2016-05-28T02:01:08.577Z,20.94
2016-05-28T02:02:08.486Z,20.98
2016-05-28T02:03:08.472Z,21.08
2016-05-28T02:04:08.475Z,21.13
2016-05-28T02:05:08.322Z,21.16
2016-05-28T02:06:08.450Z,21.13
2016-05-28T02:07:08.422Z,21.18
2016-05-28T02:08:08.252Z,21.12
2016-05-28T02:09:08.552Z,21.13
2016-05-28T02:10:08.430Z,21.24
2016-05-28T02:11:08.370Z,21.24
2016-05-28T02:12:08.357Z,21.21
2016-05-28T02:13:08.359Z,21.28
2016-05-28T02:14:08.346Z,21.27
2016-05-28T02:15:08.193Z,21.21
2016-05-28T02:16:08.305Z,21.24
2016-05-28T02:17:08.604Z,21.27
2016-05-28T02:18:08.295Z,21.31
2016-05-28T02:19:08.265Z,21.26
2016-05-28T02:20:08.504Z,21.26
2016-05-28T02:21:08.240Z,21.26
2016-05-28T02:22:08.227Z,21.31
2016-05-28T02:23:08.215Z,21.27
2016-05-28T02:24:08.201Z,21.19
2016-05-28T02:25:08.595Z,21.28
2016-05-28T02:26:08.020Z,21.19
2016-05-28T02:27:08.162Z,21.27
2016-05-28T02:28:08.150Z,21.24
2016-05-28T02:29:07.981Z,21.31
2016-05-28T02:30:08.124Z,21.27
2016-05-28T02:31:08.111Z,21.26
2016-05-28T02:32:08.051Z,21.31
2016-05-28T02:33:08.600Z,21.34
2016-05-28T02:34:08.072Z,21.31
2016-05-28T02:35:08.074Z,21.24
2016-05-28T02:36:08.061Z,21.19
2016-05-28T02:37:08.034Z,21.27
2016-05-28T02:38:08.021Z,21.31
2016-05-28T02:39:08.008Z,21.34
2016-05-28T02:40:08.182Z,21.31
2016-05-28T02:41:07.982Z,21.26
2016-05-28T02:42:07.812Z,21.31
2016-05-28T02:43:07.644Z,21.28
2016-05-28T02:44:07.943Z,21.36
2016-05-28T02:45:07.914Z,21.31
2016-05-28T02:46:07.761Z,21.26
2016-05-28T02:47:07.888Z,21.28
2016-05-28T02:48:08.188Z,21.36
2016-05-28T02:49:07.893Z,21.26
2016-05-28T02:50:07.709Z,21.27
2016-05-28T02:51:07.852Z,21.3
2016-05-28T02:52:07.684Z,21.28
2016-05-28T02:53:07.671Z,21.36
2016-05-28T02:54:07.797Z,21.28
2016-05-28T02:55:07.800Z,21.28
2016-05-28T02:56:08.240Z,21.34
2016-05-28T02:57:07.775Z,21.38
2016-05-28T02:58:07.761Z,21.3
2016-05-28T02:59:07.748Z,21.36
2016-05-28T03:00:07.736Z,21.31
2016-05-28T03:01:07.722Z,21.3
2016-05-28T03:02:07.711Z,21.33
2016-05-28T03:03:07.697Z,21.36
2016-05-28T03:04:08.231Z,21.37
2016-05-28T03:05:07.843Z,21.42
2016-05-28T03:06:07.658Z,21.38
2016-05-28T03:07:07.644Z,21.37
2016-05-28T03:08:07.633Z,21.3
2016-05-28T03:09:07.619Z,21.34
2016-05-28T03:10:07.435Z,21.33
2016-05-28T03:11:07.594Z,21.33
2016-05-28T03:12:08.378Z,21.31
2016-05-28T03:13:07.411Z,21.33
2016-05-28T03:14:07.539Z,21.34
2016-05-28T03:15:07.526Z,21.36
2016-05-28T03:16:07.419Z,21.33
2016-05-28T03:17:07.500Z,21.36
2016-05-28T03:18:07.504Z,21.33
2016-05-28T03:19:07.318Z,21.42
2016-05-28T03:20:08.134Z,21.4
2016-05-28T03:21:07.307Z,21.36
2016-05-28T03:22:07.435Z,21.38
2016-05-28T03:23:07.423Z,21.33
2016-05-28T03:24:07.410Z,21.33
2016-05-28T03:25:07.256Z,21.43
2016-05-28T03:26:07.384Z,21.33
2016-05-28T03:27:07.370Z,21.37
2016-05-28T03:28:08.389Z,21.36
2016-05-28T03:29:07.361Z,21.38
2016-05-28T03:30:07.192Z,21.43
2016-05-28T03:31:07.319Z,21.3
2016-05-28T03:32:07.306Z,21.42
2016-05-28T03:33:07.294Z,21.36
2016-05-28T03:34:07.280Z,21.36
2016-05-28T03:35:07.236Z,21.37
2016-05-28T03:36:07.567Z,21.43
2016-05-28T03:37:07.116Z,21.33
2016-05-28T03:38:07.244Z,21.38
2016-05-28T03:39:07.215Z,21.37
2016-05-28T03:40:07.233Z,21.37
2016-05-28T03:41:07.050Z,21.4
2016-05-28T03:42:07.177Z,21.4
2016-05-28T03:43:07.163Z,21.43
2016-05-28T03:44:08.199Z,21.38
2016-05-28T03:45:07.154Z,21.46
2016-05-28T03:46:06.985Z,21.45
2016-05-28T03:47:07.112Z,21.38
2016-05-28T03:48:07.099Z,21.4
2016-05-28T03:49:06.930Z,21.4
2016-05-28T03:50:07.371Z,21.34
2016-05-28T03:51:07.060Z,21.4
2016-05-28T03:52:07.563Z,21.37
2016-05-28T03:53:07.035Z,21.37
2016-05-28T03:54:07.022Z,21.4
2016-05-28T03:55:07.009Z,21.4
2016-05-28T03:56:06.995Z,21.37
2016-05-28T03:57:06.826Z,21.4
2016-05-28T03:58:06.829Z,21.37
2016-05-28T03:59:06.956Z,21.45
2016-05-28T04:00:06.803Z,21.4
2016-05-28T04:01:06.947Z,21.43
2016-05-28T04:02:06.934Z,21.42
2016-05-28T04:03:06.921Z,21.34
2016-05-28T04:04:06.923Z,21.38
2016-05-28T04:05:07.098Z,21.42
2016-05-28T04:06:06.867Z,21.43
2016-05-28T04:07:06.869Z,21.43
2016-05-28T04:08:06.840Z,21.48
2016-05-28T04:09:06.828Z,21.43
2016-05-28T04:10:06.814Z,21.45
2016-05-28T04:11:06.817Z,21.45
2016-05-28T04:12:06.805Z,21.4
2016-05-28T04:13:06.807Z,21.4
2016-05-28T04:14:06.763Z,21.4
2016-05-28T04:15:06.594Z,21.42
2016-05-28T04:16:06.738Z,21.4
2016-05-28T04:17:06.724Z,21.42
2016-05-28T04:18:06.571Z,21.4
2016-05-28T04:19:06.543Z,21.42
2016-05-28T04:20:06.779Z,21.4
2016-05-28T04:21:06.673Z,21.4
2016-05-28T04:22:06.503Z,21.43
2016-05-28T04:23:06.646Z,21.38
2016-05-28T04:24:06.493Z,21.4
2016-05-28T04:25:06.637Z,21.4
2016-05-28T04:26:06.623Z,21.38
2016-05-28T04:27:06.595Z,21.42
2016-05-28T04:28:06.581Z,21.4
2016-05-28T04:29:06.584Z,21.43
2016-05-28T04:30:06.415Z,21.37
2016-05-28T04:31:06.542Z,21.36
2016-05-28T04:32:06.530Z,21.4
2016-05-28T04:33:06.564Z,21.42
2016-05-28T04:34:06.347Z,21.52
2016-05-28T04:35:06.460Z,21.43
2016-05-28T04:36:06.478Z,21.45
2016-05-28T04:37:06.466Z,21.42
2016-05-28T04:38:06.297Z,21.37
2016-05-28T04:39:06.439Z,21.4
2016-05-28T04:40:06.114Z,21.38
2016-05-28T04:41:06.555Z,21.4
2016-05-28T04:42:06.416Z,21.38
2016-05-28T04:43:06.388Z,21.43
2016-05-28T04:44:06.375Z,21.4
2016-05-28T04:45:06.363Z,21.43
2016-05-28T04:46:06.349Z,21.36
2016-05-28T04:47:06.196Z,21.46
2016-05-28T04:48:06.324Z,21.37
2016-05-28T04:49:06.623Z,21.4
2016-05-28T04:50:06.751Z,21.45
2016-05-28T04:51:06.144Z,21.38
2016-05-28T04:52:06.271Z,21.42
2016-05-28T04:53:06.259Z,21.49
2016-05-28T04:54:05.933Z,21.49
2016-05-28T04:55:06.232Z,21.48
2016-05-28T04:56:06.063Z,21.48
2016-05-28T04:57:06.612Z,21.4
2016-05-28T04:58:06.022Z,21.38
2016-05-28T04:59:06.181Z,21.51
2016-05-28T05:00:06.168Z,21.4
2016-05-28T05:01:06.155Z,21.48
2016-05-28T05:02:05.986Z,21.51
2016-05-28T05:03:06.114Z,21.38
2016-05-28T05:04:05.975Z,21.51
2016-05-28T05:05:06.619Z,21.48
2016-05-28T05:06:06.089Z,21.4
2016-05-28T05:07:06.077Z,21.45
2016-05-28T05:08:05.918Z,21.36
2016-05-28T05:09:06.086Z,21.53
2016-05-28T05:10:06.097Z,21.46
2016-05-28T05:11:06.108Z,21.43
2016-05-28T05:12:05.807Z,21.38
2016-05-28T05:13:06.017Z,21.4
2016-05-28T05:14:06.122Z,21.45
2016-05-28T05:15:05.962Z,21.42
2016-05-28T05:16:06.113Z,21.45
2016-05-28T05:17:06.110Z,21.51
2016-05-28T05:18:06.120Z,21.56
2016-05-28T05:19:06.093Z,21.42
2016-05-28T05:20:05.942Z,21.53
2016-05-28T05:21:06.058Z,21.42
2016-05-28T05:22:05.908Z,21.4
2016-05-28T05:23:06.053Z,21.51
2016-05-28T05:24:06.042Z,21.53
2016-05-28T05:25:06.030Z,21.4
2016-05-28T05:26:06.018Z,21.48
2016-05-28T05:27:06.006Z,21.52
2016-05-28T05:28:05.837Z,21.49
2016-05-28T05:29:06.075Z,21.49
2016-05-28T05:30:05.984Z,21.51
2016-05-28T05:31:05.957Z,21.53
2016-05-28T05:32:05.788Z,21.43
2016-05-28T05:33:05.775Z,21.4
2016-05-28T05:34:05.762Z,21.43
2016-05-28T05:35:06.092Z,21.37
2016-05-28T05:36:05.893Z,21.42
2016-05-28T05:37:06.082Z,21.48
2016-05-28T05:38:05.866Z,21.36
2016-05-28T05:39:05.697Z,21.46
2016-05-28T05:40:05.668Z,21.37
2016-05-28T05:41:05.828Z,21.43
2016-05-28T05:42:05.815Z,21.34
2016-05-28T05:43:05.848Z,21.4
2016-05-28T05:44:05.851Z,21.42
2016-05-28T05:45:06.135Z,21.4
2016-05-28T05:46:05.779Z,21.4
2016-05-28T05:47:05.750Z,21.4
2016-05-28T05:48:05.736Z,21.48
2016-05-28T05:49:05.725Z,21.48
2016-05-28T05:50:05.570Z,21.43
2016-05-28T05:51:05.698Z,21.4
2016-05-28T05:52:05.576Z,21.43
2016-05-28T05:53:06.125Z,21.42
2016-05-28T05:54:05.659Z,21.37
2016-05-28T05:55:05.646Z,21.36
2016-05-28T05:56:05.634Z,21.43
2016-05-28T05:57:05.652Z,21.4
2016-05-28T05:58:05.608Z,21.36
2016-05-28T05:59:05.455Z,21.4
2016-05-28T06:00:05.722Z,21.38
2016-05-28T06:01:05.569Z,21.45
2016-05-28T06:02:05.399Z,21.51
2016-05-28T06:03:05.559Z,21.42
2016-05-28T06:04:05.530Z,21.45
2016-05-28T06:05:05.518Z,21.36
2016-05-28T06:06:05.348Z,21.43
2016-05-28T06:07:05.490Z,21.43
2016-05-28T06:08:05.775Z,21.43
2016-05-28T06:09:05.466Z,21.4
2016-05-28T06:10:05.452Z,21.42
2016-05-28T06:11:05.298Z,21.37
2016-05-28T06:12:05.426Z,21.4
2016-05-28T06:13:05.414Z,21.38
2016-05-28T06:14:05.245Z,21.4
2016-05-28T06:15:05.387Z,21.43
2016-05-28T06:16:05.734Z,21.42
2016-05-28T06:17:05.362Z,21.37
2016-05-28T06:18:05.349Z,21.53
2016-05-28T06:19:05.023Z,21.45
2016-05-28T06:20:05.386Z,21.4
2016-05-28T06:21:05.326Z,21.43
2016-05-28T06:22:05.297Z,21.48
2016-05-28T06:23:05.284Z,21.43
2016-05-28T06:24:05.756Z,21.43
2016-05-28T06:25:05.258Z,21.38
2016-05-28T06:26:05.245Z,21.38
2016-05-28T06:27:05.233Z,21.4
2016-05-28T06:28:05.079Z,21.45
2016-05-28T06:29:05.191Z,21.37
2016-05-28T06:30:05.194Z,21.49
2016-05-28T06:31:05.180Z,21.43
2016-05-28T06:32:05.621Z,21.56
2016-05-28T06:33:05.155Z,21.45
2016-05-28T06:34:05.142Z,21.43
2016-05-28T06:35:05.629Z,21.46
2016-05-28T06:36:04.804Z,21.53
2016-05-28T06:37:05.103Z,21.52
2016-05-28T06:38:05.090Z,21.53
2016-05-28T06:39:04.921Z,21.43
2016-05-28T06:40:05.768Z,21.53
2016-05-28T06:41:04.895Z,21.48
2016-05-28T06:42:05.054Z,21.53
2016-05-28T06:43:05.026Z,21.52
2016-05-28T06:44:05.012Z,21.51
2016-05-28T06:45:05.000Z,21.49
2016-05-28T06:46:04.986Z,21.45
2016-05-28T06:47:04.974Z,21.49
2016-05-28T06:48:05.054Z,21.49
2016-05-28T06:49:04.948Z,21.53
2016-05-28T06:50:04.934Z,21.48
2016-05-28T06:51:04.937Z,21.51
2016-05-28T06:52:04.753Z,21.48
2016-05-28T06:53:04.896Z,21.43
2016-05-28T06:54:04.900Z,21.49
2016-05-28T06:55:05.683Z,21.48
2016-05-28T06:56:04.700Z,21.56
2016-05-28T06:57:04.861Z,21.45
2016-05-28T06:58:04.832Z,21.43
2016-05-28T06:59:04.866Z,21.46
2016-05-28T07:00:04.805Z,21.48
2016-05-28T07:01:04.808Z,21.45
2016-05-28T07:02:04.780Z,21.53
2016-05-28T07:03:04.969Z,21.51
2016-05-28T07:04:04.769Z,21.51
2016-05-28T07:05:04.991Z,21.52
2016-05-28T07:06:04.727Z,21.48
2016-05-28T07:07:04.730Z,21.49
2016-05-28T07:08:04.718Z,21.55
2016-05-28T07:09:04.518Z,21.48
2016-05-28T07:10:04.676Z,21.55
2016-05-28T07:11:04.976Z,21.48
2016-05-28T07:12:04.665Z,21.51
2016-05-28T07:13:04.637Z,21.49
2016-05-28T07:14:04.609Z,21.49
2016-05-28T07:15:04.439Z,21.48
2016-05-28T07:16:04.599Z,21.49
2016-05-28T07:17:04.601Z,21.52
2016-05-28T07:18:04.589Z,21.51
2016-05-28T07:19:04.950Z,21.53
2016-05-28T07:20:05.328Z,21.55
2016-05-28T07:21:04.377Z,21.51
2016-05-28T07:22:04.521Z,21.55
2016-05-28T07:23:04.508Z,21.52
2016-05-28T07:24:04.511Z,21.53
2016-05-28T07:25:04.326Z,21.52
2016-05-28T07:26:04.453Z,21.55
2016-05-28T07:27:04.300Z,21.52
2016-05-28T07:28:04.443Z,21.58
2016-05-28T07:29:04.431Z,21.56
2016-05-28T07:30:04.417Z,21.58
2016-05-28T07:31:04.419Z,21.58
2016-05-28T07:32:04.408Z,21.52
2016-05-28T07:33:04.395Z,21.52
2016-05-28T07:34:04.366Z,21.56
2016-05-28T07:35:04.384Z,21.55
2016-05-28T07:36:04.340Z,21.56
2016-05-28T07:37:04.186Z,21.52
2016-05-28T07:38:04.345Z,21.55
2016-05-28T07:39:04.145Z,21.48
2016-05-28T07:40:04.288Z,21.52
2016-05-28T07:41:04.291Z,21.53
2016-05-28T07:42:04.278Z,21.55
2016-05-28T07:43:04.249Z,21.55
2016-05-28T07:44:04.080Z,21.49
2016-05-28T07:45:04.223Z,21.56
2016-05-28T07:46:04.054Z,21.52
2016-05-28T07:47:04.181Z,21.53
2016-05-28T07:48:04.184Z,21.51
2016-05-28T07:49:04.218Z,21.52
2016-05-28T07:50:04.706Z,21.53
2016-05-28T07:51:04.145Z,21.49
2016-05-28T07:52:04.133Z,21.52
2016-05-28T07:53:04.136Z,21.55
2016-05-28T07:54:04.122Z,21.51
2016-05-28T07:55:04.094Z,21.52
2016-05-28T07:56:04.097Z,21.52
2016-05-28T07:57:04.069Z,21.56
2016-05-28T07:58:04.056Z,21.58
2016-05-28T07:59:04.074Z,21.53
2016-05-28T08:00:03.951Z,21.52
2016-05-28T08:01:04.001Z,21.53
2016-05-28T08:02:04.003Z,21.55
2016-05-28T08:03:04.006Z,21.53
2016-05-28T08:04:04.008Z,21.52
2016-05-28T08:05:04.074Z,21.52
2016-05-28T08:06:03.968Z,21.58
2016-05-28T08:07:03.938Z,21.53
2016-05-28T08:08:03.973Z,21.55
2016-05-28T08:09:03.929Z,21.61
2016-05-28T08:10:03.900Z,21.51
2016-05-28T08:11:03.887Z,21.52
2016-05-28T08:12:03.734Z,21.55
2016-05-28T08:13:03.862Z,21.51
2016-05-28T08:14:03.848Z,21.58
2016-05-28T08:15:03.835Z,21.56
2016-05-28T08:16:03.979Z,21.56
2016-05-28T08:17:03.809Z,21.58
2016-05-28T08:18:03.812Z,21.56
2016-05-28T08:19:03.643Z,21.59
2016-05-28T08:20:03.958Z,21.58
2016-05-28T08:21:03.759Z,21.53
2016-05-28T08:22:03.745Z,21.55
2016-05-28T08:23:03.747Z,21.55
2016-05-28T08:24:03.969Z,21.58
2016-05-28T08:25:03.550Z,21.55
2016-05-28T08:26:03.739Z,21.74
2016-05-28T08:27:03.696Z,21.73
2016-05-28T08:28:03.511Z,21.77
2016-05-28T08:29:08.217Z,21.79
2016-05-28T08:30:03.658Z,21.83
2016-05-28T08:31:03.628Z,21.86
2016-05-28T08:32:04.006Z,21.94
2016-05-28T08:33:03.602Z,21.75
2016-05-28T08:34:07.308Z,21.74
2016-05-28T08:35:03.655Z,21.77
2016-05-28T08:36:03.579Z,21.7
2016-05-28T08:37:03.563Z,21.75
2016-05-28T08:38:03.535Z,21.7
2016-05-28T08:39:03.963Z,21.67
2016-05-28T08:40:04.028Z,21.7
2016-05-28T08:41:03.497Z,21.7
2016-05-28T08:42:03.483Z,21.7
2016-05-28T08:43:03.486Z,21.61
2016-05-28T08:44:06.304Z,21.67
2016-05-28T08:45:03.445Z,21.66
2016-05-28T08:46:03.448Z,21.73
2016-05-28T08:47:03.419Z,21.75
2016-05-28T08:48:04.002Z,21.71
2016-05-28T08:49:05.677Z,21.79
2016-05-28T08:50:03.240Z,21.86
2016-05-28T08:51:03.383Z,21.77
2016-05-28T08:52:03.370Z,21.85
2016-05-28T08:53:03.356Z,21.77
2016-05-28T08:54:03.329Z,21.86
2016-05-28T08:55:03.347Z,21.85
2016-05-28T08:56:03.303Z,21.85
2016-05-28T08:57:03.134Z,21.83
2016-05-28T08:58:03.276Z,21.85
2016-05-28T08:59:03.263Z,21.89
2016-05-28T09:00:03.250Z,21.82
2016-05-28T09:01:03.238Z,21.83
2016-05-28T09:02:03.241Z,21.85
2016-05-28T09:03:03.211Z,21.89
2016-05-28T09:04:03.293Z,21.83
2016-05-28T09:05:03.295Z,21.85
2016-05-28T09:06:03.173Z,21.86
2016-05-28T09:07:03.160Z,21.89
2016-05-28T09:08:02.991Z,21.94
2016-05-28T09:09:03.134Z,21.94
2016-05-28T09:10:03.121Z,22.04
2016-05-28T09:11:02.952Z,21.94
2016-05-28T09:12:03.346Z,21.91
2016-05-28T09:13:02.941Z,21.93
2016-05-28T09:14:03.069Z,21.94
2016-05-28T09:15:03.104Z,21.89
2016-05-28T09:16:03.060Z,21.98
2016-05-28T09:17:02.874Z,21.86
2016-05-28T09:18:02.862Z,21.93
2016-05-28T09:19:03.021Z,21.94
2016-05-28T09:20:04.695Z,21.94
2016-05-28T09:21:02.979Z,21.99
2016-05-28T09:22:02.965Z,21.94
2016-05-28T09:23:02.969Z,21.9
2016-05-28T09:24:02.956Z,21.94
2016-05-28T09:25:02.959Z,21.9
2016-05-28T09:26:02.915Z,22.01
2016-05-28T09:27:02.949Z,21.94
2016-05-28T09:28:03.342Z,22.01
2016-05-28T09:29:02.891Z,21.98
2016-05-28T09:30:02.862Z,22.04
2016-05-28T09:31:02.850Z,22.08
2016-05-28T09:32:02.868Z,22.02
2016-05-28T09:33:02.825Z,22.01
2016-05-28T09:34:02.826Z,21.99
2016-05-28T09:35:03.172Z,21.99
2016-05-28T09:36:02.800Z,21.99
2016-05-28T09:37:02.772Z,22.05
2016-05-28T09:38:02.602Z,22.02
2016-05-28T09:39:02.621Z,21.99
2016-05-28T09:40:02.733Z,22.09
2016-05-28T09:41:02.735Z,22.04
2016-05-28T09:42:02.567Z,22.15
2016-05-28T09:43:02.976Z,22.08
2016-05-28T09:44:02.697Z,22.12
2016-05-28T09:45:02.684Z,22.06
2016-05-28T09:46:02.702Z,22.09
2016-05-28T09:47:02.658Z,22.15
2016-05-28T09:48:02.630Z,22.11
2016-05-28T09:49:02.618Z,22.11
2016-05-28T09:50:02.323Z,22.11
2016-05-28T09:51:03.012Z,22.05
2016-05-28T09:52:02.593Z,22.11
2016-05-28T09:53:02.581Z,22.05
2016-05-28T09:54:02.567Z,22.14
2016-05-28T09:55:02.554Z,22.15
2016-05-28T09:56:02.682Z,22.12
2016-05-28T09:57:03.873Z,22.14
2016-05-28T09:58:02.516Z,22.08
2016-05-28T09:59:02.987Z,22.06
2016-05-28T10:00:02.490Z,22.12
2016-05-28T10:01:02.478Z,22.14
2016-05-28T10:02:02.308Z,22.12
2016-05-28T10:03:02.435Z,22.17
2016-05-28T10:04:02.438Z,22.15
2016-05-28T10:05:02.317Z,22.14
2016-05-28T10:06:02.413Z,22.17
2016-05-28T10:07:03.008Z,22.14
2016-05-28T10:08:02.387Z,22.2
2016-05-28T10:09:02.374Z,22.14
2016-05-28T10:10:02.205Z,22.14
2016-05-28T10:11:02.208Z,22.12
2016-05-28T10:12:02.180Z,22.12
2016-05-28T10:13:02.338Z,22.23
2016-05-28T10:14:02.309Z,22.2
2016-05-28T10:15:02.999Z,22.23
2016-05-28T10:16:02.283Z,22.2
2016-05-28T10:17:02.286Z,22.2
2016-05-28T10:18:02.102Z,22.14
2016-05-28T10:19:02.244Z,22.14
2016-05-28T10:20:02.232Z,22.15
2016-05-28T10:21:02.218Z,22.26
2016-05-28T10:22:02.190Z,22.23
2016-05-28T10:23:03.005Z,22.23
2016-05-28T10:24:02.180Z,22.15
2016-05-28T10:25:02.182Z,22.27
2016-05-28T10:26:02.153Z,22.26
2016-05-28T10:27:02.141Z,22.19
2016-05-28T10:28:02.143Z,22.23
2016-05-28T10:29:02.131Z,22.23
2016-05-28T10:30:02.211Z,22.29
2016-05-28T10:31:02.105Z,22.26
2016-05-28T10:32:01.779Z,22.26
2016-05-28T10:33:02.064Z,22.26
2016-05-28T10:34:01.909Z,22.26
2016-05-28T10:35:02.037Z,22.24
2016-05-28T10:36:02.025Z,22.35
2016-05-28T10:37:02.027Z,22.26
2016-05-28T10:38:02.217Z,22.26
2016-05-28T10:39:01.985Z,22.21
2016-05-28T10:40:01.972Z,22.33
2016-05-28T10:41:01.960Z,22.17
2016-05-28T10:42:01.806Z,22.24
2016-05-28T10:43:01.949Z,22.3
2016-05-28T10:44:01.921Z,22.38
2016-05-28T10:45:01.924Z,22.33
2016-05-28T10:46:02.051Z,22.27
2016-05-28T10:47:01.898Z,22.27
2016-05-28T10:48:01.885Z,22.27
2016-05-28T10:49:01.856Z,22.39
2016-05-28T10:50:02.437Z,22.36
2016-05-28T10:51:01.690Z,22.36
2016-05-28T10:52:01.662Z,22.33
2016-05-28T10:53:01.804Z,22.36
2016-05-28T10:54:02.198Z,22.42
2016-05-28T10:55:02.123Z,22.38
2016-05-28T10:56:01.782Z,22.45
2016-05-28T10:57:01.768Z,22.41
2016-05-28T10:58:01.756Z,22.35
2016-05-28T10:59:01.743Z,22.49
2016-05-28T11:00:01.745Z,22.49
2016-05-28T11:01:01.732Z,22.54
2016-05-28T11:02:03.063Z,22.44
2016-05-28T11:03:01.676Z,22.52
2016-05-28T11:04:01.678Z,22.45
2016-05-28T11:05:01.993Z,22.41
2016-05-28T11:06:01.808Z,22.51
2016-05-28T11:07:01.670Z,22.51
2016-05-28T11:08:01.470Z,22.52
2016-05-28T11:09:01.613Z,22.45
2016-05-28T11:10:01.616Z,22.49
2016-05-28T11:11:01.431Z,22.46
2016-05-28T11:12:01.574Z,22.44
2016-05-28T11:13:01.561Z,22.52
2016-05-28T11:14:01.596Z,22.44
2016-05-28T11:15:01.536Z,22.44
2016-05-28T11:16:01.538Z,22.52
2016-05-28T11:17:01.354Z,22.45
2016-05-28T11:18:01.341Z,22.44
2016-05-28T11:19:01.485Z,22.49
2016-05-28T11:20:01.487Z,22.42
2016-05-28T11:21:01.474Z,22.45
2016-05-28T11:22:01.461Z,22.46
2016-05-28T11:23:01.433Z,22.48
2016-05-28T11:24:01.434Z,22.64
2016-05-28T11:25:01.421Z,22.56
2016-05-28T11:26:01.424Z,22.36
2016-05-28T11:27:01.381Z,22.48
2016-05-28T11:28:01.383Z,22.45
2016-05-28T11:29:01.354Z,22.52
2016-05-28T11:30:01.357Z,22.49
2016-05-28T11:31:01.345Z,22.42
2016-05-28T11:32:01.347Z,22.38
2016-05-28T11:33:01.303Z,22.36
2016-05-28T11:34:01.306Z,22.39
2016-05-28T11:35:01.746Z,22.33
2016-05-28T11:36:01.264Z,22.33
2016-05-28T11:37:01.266Z,22.41
2016-05-28T11:38:01.253Z,22.3
2016-05-28T11:39:01.084Z,22.31
2016-05-28T11:40:01.244Z,22.35
2016-05-28T11:41:01.199Z,22.26
2016-05-28T11:42:01.218Z,22.39
2016-05-28T11:43:01.174Z,22.49
2016-05-28T11:44:01.176Z,22.46
2016-05-28T11:45:01.007Z,22.44
2016-05-28T11:46:01.166Z,22.54
2016-05-28T11:47:01.122Z,22.57
2016-05-28T11:48:01.125Z,22.45
2016-05-28T11:49:01.111Z,22.48
2016-05-28T11:50:01.145Z,22.54
2016-05-28T11:51:01.196Z,22.61
2016-05-28T11:52:00.932Z,22.72
2016-05-28T11:53:01.076Z,22.7
2016-05-28T11:54:01.093Z,22.75
2016-05-28T11:55:01.065Z,22.78
2016-05-28T11:56:01.037Z,22.74
2016-05-28T11:57:01.024Z,22.7
2016-05-28T11:58:01.010Z,22.69
2016-05-28T11:59:01.248Z,22.61
2016-05-28T12:00:00.984Z,22.61
2016-05-28T12:01:00.973Z,22.74
2016-05-28T12:02:00.975Z,22.79
2016-05-28T12:03:00.774Z,22.85
2016-05-28T12:04:00.917Z,22.85
2016-05-28T12:05:00.780Z,23
2016-05-28T12:06:00.907Z,23
2016-05-28T12:07:01.238Z,23.07
2016-05-28T12:08:00.882Z,23.11
2016-05-28T12:09:00.868Z,23.14
2016-05-28T12:10:00.715Z,23.12
2016-05-28T12:11:00.703Z,23.04
2016-05-28T12:12:00.845Z,23.04
2016-05-28T12:13:00.660Z,23.22
2016-05-28T12:14:00.804Z,23.31
2016-05-28T12:15:01.244Z,23.39
2016-05-28T12:16:00.778Z,23.39
2016-05-28T12:17:00.765Z,23.47
2016-05-28T12:18:00.768Z,23.41
2016-05-28T12:19:00.739Z,23.45
2016-05-28T12:20:01.133Z,23.49
2016-05-28T12:21:00.713Z,23.41
2016-05-28T12:22:00.700Z,23.57
2016-05-28T12:23:01.296Z,23.62
2016-05-28T12:24:00.705Z,23.68
2016-05-28T12:25:00.708Z,23.68
2016-05-28T12:26:00.665Z,23.77
2016-05-28T12:27:00.651Z,23.75
2016-05-28T12:28:00.654Z,23.75
2016-05-28T12:29:00.625Z,23.79
2016-05-28T12:30:00.613Z,23.78
2016-05-28T12:31:01.303Z,23.77
2016-05-28T12:32:00.601Z,23.78
2016-05-28T12:33:00.573Z,23.87
2016-05-28T12:34:00.576Z,23.81
2016-05-28T12:35:00.439Z,23.63
2016-05-28T12:36:00.550Z,23.67
2016-05-28T12:37:00.554Z,23.5
2016-05-28T12:38:00.525Z,23.38
2016-05-28T12:39:00.559Z,23.25
2016-05-28T12:40:00.499Z,23.18
2016-05-28T12:41:00.470Z,23.06
2016-05-28T12:42:00.489Z,23.11
2016-05-28T12:43:00.460Z,23.03
2016-05-28T12:44:00.447Z,23.07
2016-05-28T12:45:00.450Z,23.11
2016-05-28T12:46:00.421Z,23.09
2016-05-28T12:47:00.565Z,23.01
2016-05-28T12:48:00.239Z,23
2016-05-28T12:49:00.397Z,22.96
2016-05-28T12:50:00.244Z,22.84
2016-05-28T12:51:00.372Z,22.84
2016-05-28T12:52:00.187Z,22.84
2016-05-28T12:53:00.362Z,22.91
2016-05-28T12:54:00.333Z,22.88
2016-05-28T12:55:00.585Z,22.91